Biggar, United Kingdom
Current Conditions -  °F | °C
As of 2:20 PM on Wednesday 28 Jan 2015 (Local Time) from EGPH Reporting Station
Snow Showers Snow Showers  
Wind Chill: 25°   Ceiling: 1400
Heat Index: 36°   Visibility: 1.8mi
Dew Point: 32°   Wind: 18mph
Humidity: 87%   Direction: 260°W
Pressure: 29.21"   Gusts: 30mph
Location:  55.62°N, 3.52°W
Report Text: EGPH 281420Z 26016G26KT 3000 SHSN SCT007TCU BKN014 02/M00 Q0989
Loading
Personal Weather Stations






























Interactive Weather Map New forecast layout! Learn more

10-Day Weather Forecast

Advertisements
Track Severe Weather on mobile